Time;durP1;ratioP1;P1;durP2;ratioP2;P2;SDS_P1;SDS_P2;PMS_P1;PMS_P2;Temp;Humidity;BMP_temperature;BMP_pressure;BME280_temperature;BME280_humidity;BME280_pressure;Samples;Min_cycle;Max_cycle;Signal;HPM_P1;HPM_P2
2022/09/11 00:01:03;;;;;;;8.25;4.90;;;;;;;18.09;65.34;93828.25;5009178;28;20026;-75
2022/09/11 00:03:30;;;;;;;8.82;4.82;;;;;;;18.11;64.86;93820.59;5009208;28;20025;-77
2022/09/11 00:06:01;;;;;;;7.18;4.88;;;;;;;18.15;64.83;93829.50;5009158;28;20061;-75
2022/09/11 00:08:26;;;;;;;11.48;5.22;;;;;;;18.13;64.65;93823.69;5009152;28;20216;-75
2022/09/11 00:10:52;;;;;;;14.32;5.30;;;;;;;18.12;64.75;93824.09;5008976;28;20018;-75
2022/09/11 00:13:20;;;;;;;11.68;5.18;;;;;;;18.15;64.67;93829.50;5009087;28;20030;-76
2022/09/11 00:15:48;;;;;;;7.40;4.75;;;;;;;18.15;65.36;93820.66;5009320;28;20037;-75
2022/09/11 00:18:16;;;;;;;12.77;5.85;;;;;;;18.11;65.37;93831.38;5009012;28;20224;-75
2022/09/11 00:20:55;;;;;;;9.88;5.75;;;;;;;18.06;65.43;93831.69;5005574;28;20233;-75
2022/09/11 00:23:24;;;;;;;11.05;5.75;;;;;;;18.02;65.74;93828.16;5005948;28;20031;-75
2022/09/11 00:25:49;;;;;;;9.75;5.82;;;;;;;17.93;65.96;93833.00;5005802;28;20073;-75
2022/09/11 00:28:23;;;;;;;9.88;4.82;;;;;;;17.86;66.06;93828.28;5005730;28;20034;-75
2022/09/11 00:31:07;;;;;;;12.00;5.18;;;;;;;17.85;66.59;93834.81;5005632;28;20029;-75
2022/09/11 00:33:34;;;;;;;15.60;5.75;;;;;;;17.83;66.60;93834.41;5005733;28;20379;-75
2022/09/11 00:36:03;;;;;;;10.32;5.22;;;;;;;17.79;66.93;93834.31;5005754;28;20198;-75
2022/09/11 00:38:31;;;;;;;9.77;6.00;;;;;;;17.71;67.47;93837.22;5005502;28;20029;-75
2022/09/11 00:40:59;;;;;;;14.18;5.72;;;;;;;17.65;67.66;93847.53;5005529;28;20022;-75
2022/09/11 00:43:26;;;;;;;13.43;5.72;;;;;;;17.64;67.69;93843.25;5005464;28;20037;-75
2022/09/11 00:45:57;;;;;;;8.32;5.10;;;;;;;17.61;67.79;93838.59;5005471;28;20220;-75
2022/09/11 00:48:26;;;;;;;8.52;5.53;;;;;;;17.58;68.16;93845.47;5005592;28;20133;-75
2022/09/11 00:50:54;;;;;;;8.32;5.25;;;;;;;17.58;68.25;93833.91;5005363;28;20025;-75
2022/09/11 00:53:24;;;;;;;7.97;4.95;;;;;;;17.60;68.35;93832.41;5005309;28;20018;-75
2022/09/11 00:55:57;;;;;;;12.73;5.00;;;;;;;17.63;68.40;93830.94;5005464;28;20029;-75
2022/09/11 00:58:26;;;;;;;10.02;5.05;;;;;;;17.63;68.35;93839.81;5005561;28;20045;-75
2022/09/11 01:00:54;;;;;;;8.10;5.10;;;;;;;17.67;68.24;93834.47;5005196;28;20041;-75
2022/09/11 01:03:20;;;;;;;7.32;5.20;;;;;;;17.60;68.12;93832.41;5005115;28;20190;-76
2022/09/11 01:05:47;;;;;;;9.45;5.10;;;;;;;17.62;68.33;93824.75;5005108;28;20024;-76
2022/09/11 01:08:13;;;;;;;7.47;5.28;;;;;;;17.59;68.54;93822.78;5005080;28;20253;-76
2022/09/11 01:11:30;;;;;;;14.40;5.60;;;;;;;17.53;68.95;93826.13;5005292;28;20022;-76
2022/09/11 01:14:15;;;;;;;9.30;5.22;;;;;;;17.40;68.48;93820.91;4964527;29;20094;-76
2022/09/11 01:17:09;;;;;;;5.85;4.90;;;;;;;17.38;68.83;93825.88;5001970;28;20161;-75
2022/09/11 01:20:11;;;;;;;10.85;4.85;;;;;;;17.41;68.56;93830.53;5005210;28;20033;-75
2022/09/11 01:22:55;;;;;;;;;;;;;;;17.33;68.56;93828.06;5005253;28;20049;-76
2022/09/11 01:26:15;;;;;;;8.80;3.88;;;;;;;17.30;68.61;93837.66;5004767;28;20220;-75
2022/09/11 01:28:48;;;;;;;7.43;4.10;;;;;;;17.29;68.70;93835.31;4996954;28;20034;-75
2022/09/11 01:31:19;;;;;;;5.45;3.95;;;;;;;17.34;68.30;93838.50;5004545;28;20057;-75
2022/09/11 01:33:59;;;;;;;4.63;3.35;;;;;;;17.34;68.02;93822.34;5004581;28;20350;-76
2022/09/11 01:36:44;;;;;;;4.47;3.65;;;;;;;17.37;67.99;93821.63;5004611;28;20267;-75
2022/09/11 01:39:11;;;;;;;6.97;3.65;;;;;;;17.41;67.85;93819.00;5004344;28;20033;-76
2022/09/11 01:41:45;;;;;;;6.72;3.97;;;;;;;17.39;67.69;93811.25;5004556;28;20077;-76
2022/09/11 01:44:23;;;;;;;6.85;3.65;;;;;;;17.40;67.80;93818.22;5004355;28;20312;-76
2022/09/11 01:46:51;;;;;;;7.88;3.55;;;;;;;17.50;67.09;93816.06;5004290;28;20081;-75
2022/09/11 01:49:31;;;;;;;5.20;3.10;;;;;;;17.51;67.18;93807.63;5004391;28;20045;-75
2022/09/11 01:52:01;;;;;;;5.22;3.60;;;;;;;17.53;67.14;93799.19;5004337;28;20022;-76
2022/09/11 01:54:32;;;;;;;6.47;3.88;;;;;;;17.56;67.08;93793.06;5004228;28;20018;-75
2022/09/11 01:57:05;;;;;;;7.95;2.85;;;;;;;17.59;66.97;93793.16;5004044;28;20069;-75
2022/09/11 01:59:39;;;;;;;5.10;2.92;;;;;;;17.62;66.51;93799.72;5004231;28;20018;-75
2022/09/11 02:02:08;;;;;;;5.18;2.65;;;;;;;17.63;66.01;93787.81;5019332;28;20339;-75
2022/09/11 02:04:47;;;;;;;5.90;3.00;;;;;;;17.67;65.83;93788.66;5004034;28;20308;-76
2022/09/11 02:07:20;;;;;;;7.22;4.28;;;;;;;17.73;66.23;93791.84;5003983;28;20026;-75
2022/09/11 02:09:53;;;;;;;4.00;2.83;;;;;;;17.73;66.20;93789.16;5003914;28;20089;-76
2022/09/11 02:12:23;;;;;;;11.60;3.17;;;;;;;17.68;66.44;93775.97;5003875;28;20335;-76
2022/09/11 02:14:52;;;;;;;4.50;3.15;;;;;;;17.70;66.46;93779.06;5003874;28;20030;-75
2022/09/11 02:17:35;;;;;;;6.45;2.97;;;;;;;17.72;66.03;93785.66;5003706;28;20339;-76
2022/09/11 02:20:01;;;;;;;7.20;3.10;;;;;;;17.73;66.21;93784.53;5003775;28;20037;-76
2022/09/11 02:22:26;;;;;;;4.60;2.97;;;;;;;17.73;65.93;93786.44;5003734;28;20029;-75
2022/09/11 02:24:53;;;;;;;12.98;3.55;;;;;;;17.74;66.53;93775.28;5003780;28;20320;-76
2022/09/11 02:27:25;;;;;;;5.75;3.50;;;;;;;17.76;66.92;93777.63;5003699;28;20018;-76
2022/09/11 02:29:52;;;;;;;7.53;3.10;;;;;;;17.79;66.60;93783.09;5003681;28;20048;-75
2022/09/11 02:32:19;;;;;;;6.13;3.50;;;;;;;17.79;66.36;93775.00;5003364;28;20029;-75
2022/09/11 02:34:47;;;;;;;4.78;3.55;;;;;;;17.79;66.78;93787.72;5018774;28;20036;-76
2022/09/11 02:37:33;;;;;;;6.05;3.67;;;;;;;17.80;66.11;93784.63;5003493;28;20105;-75
2022/09/11 02:40:09;;;;;;;5.65;2.88;;;;;;;17.77;66.45;93790.75;5003451;28;20033;-76
2022/09/11 02:43:09;;;;;;;5.90;3.38;;;;;;;17.75;66.18;93787.66;5003169;28;20030;-76
2022/09/11 02:45:53;;;;;;;7.57;3.05;;;;;;;17.69;66.46;93791.78;5003453;28;20121;-77
2022/09/11 02:48:42;;;;;;;6.15;2.90;;;;;;;17.68;66.70;93790.19;5003378;28;20379;-76
2022/09/11 02:51:24;;;;;;;5.40;3.40;;;;;;;17.62;66.99;93789.72;5003397;28;20355;-76
2022/09/11 02:54:16;;;;;;;9.75;3.50;;;;;;;17.60;67.45;93796.59;5003343;28;20316;-76
2022/09/11 02:57:00;;;;;;;5.88;3.30;;;;;;;17.60;66.99;93804.69;5003412;28;20228;-76
2022/09/11 02:59:52;;;;;;;8.88;3.38;;;;;;;17.55;67.02;93791.53;5003231;28;20086;-75
2022/09/11 03:02:17;;;;;;;7.15;3.65;;;;;;;17.49;67.03;93787.56;5003073;28;20029;-75
2022/09/11 03:04:44;;;;;;;8.80;3.00;;;;;;;17.48;67.12;93792.16;5003161;28;20026;-76
2022/09/11 03:07:10;;;;;;;6.20;3.47;;;;;;;17.46;67.01;93794.44;5003141;28;20030;-76
2022/09/11 03:09:35;;;;;;;4.50;3.30;;;;;;;17.37;67.65;93794.69;5003119;28;20026;-76
2022/09/11 03:12:03;;;;;;;5.38;3.20;;;;;;;17.32;67.22;93794.97;5003009;28;20098;-75
2022/09/11 03:14:28;;;;;;;6.10;3.20;;;;;;;17.25;67.23;93784.84;5003118;28;20030;-75
2022/09/11 03:16:55;;;;;;;4.95;2.90;;;;;;;17.20;67.61;93787.84;5003076;28;20110;-75
2022/09/11 03:19:21;;;;;;;4.53;2.95;;;;;;;17.13;67.97;93798.47;5003127;28;20049;-76
2022/09/11 03:21:46;;;;;;;5.85;3.47;;;;;;;17.05;68.22;93816.38;5002901;28;20049;-75
2022/09/11 03:24:13;;;;;;;12.07;3.20;;;;;;;17.00;68.45;93815.91;5002874;28;20019;-75
2022/09/11 03:26:38;;;;;;;4.95;3.45;;;;;;;17.00;68.73;93819.38;5003029;28;20037;-76
2022/09/11 03:29:04;;;;;;;12.88;3.88;;;;;;;16.97;68.63;93812.00;5003017;28;20022;-75
2022/09/11 03:31:30;;;;;;;8.90;3.92;;;;;;;16.91;69.00;93823.41;5002723;28;20094;-75
2022/09/11 03:33:56;;;;;;;8.10;4.15;;;;;;;16.88;69.43;93824.91;5002907;28;20030;-76
2022/09/11 03:36:21;;;;;;;5.68;4.05;;;;;;;16.82;69.42;93815.53;5002642;28;20308;-75
2022/09/11 03:38:47;;;;;;;5.45;3.67;;;;;;;16.78;69.78;93820.03;5003062;28;20032;-75
2022/09/11 03:41:13;;;;;;;7.05;3.53;;;;;;;16.71;70.26;93826.06;5002770;28;20022;-75
2022/09/11 03:43:39;;;;;;;6.65;4.00;;;;;;;16.68;70.25;93828.66;5002847;28;20064;-75
2022/09/11 03:46:05;;;;;;;6.35;4.07;;;;;;;16.63;70.84;93835.13;5002593;28;20070;-75
2022/09/11 03:48:30;;;;;;;6.55;3.30;;;;;;;16.60;70.95;93825.03;5002574;28;20032;-75
2022/09/11 03:50:57;;;;;;;7.18;3.80;;;;;;;16.57;70.74;93818.47;5002814;28;20030;-76
2022/09/11 03:53:24;;;;;;;6.60;4.00;;;;;;;16.52;71.15;93823.31;5002757;28;20047;-76
2022/09/11 03:55:49;;;;;;;7.22;4.10;;;;;;;16.44;71.20;93827.75;5004785;28;20026;-76
2022/09/11 03:58:17;;;;;;;6.07;4.47;;;;;;;16.38;71.37;93823.78;5006340;28;20106;-75
2022/09/11 04:00:43;;;;;;;5.32;4.13;;;;;;;16.35;71.73;93836.03;5006237;28;20202;-76
2022/09/11 04:03:14;;;;;;;8.82;4.63;;;;;;;16.38;71.71;93837.22;5006147;28;20057;-75
2022/09/11 04:05:40;;;;;;;6.13;4.65;;;;;;;16.36;71.88;93826.03;5006274;28;20037;-75
2022/09/11 04:08:05;;;;;;;7.82;4.35;;;;;;;16.36;71.98;93836.81;5006201;28;20265;-76
2022/09/11 04:10:32;;;;;;;7.22;4.60;;;;;;;16.31;72.30;93827.09;5006140;28;20030;-75
2022/09/11 04:12:58;;;;;;;9.65;5.18;;;;;;;16.33;72.61;93830.22;5006075;28;20022;-76
2022/09/11 04:15:23;;;;;;;6.93;4.47;;;;;;;16.35;72.78;93832.56;5005906;28;20022;-76
2022/09/11 04:17:49;;;;;;;5.75;4.00;;;;;;;16.30;72.40;93832.81;5006189;28;20022;-76
2022/09/11 04:20:14;;;;;;;5.35;3.97;;;;;;;16.25;72.95;93826.59;5005822;28;20029;-75
2022/09/11 04:22:40;;;;;;;9.95;4.72;;;;;;;16.27;72.98;93838.91;5005963;28;20277;-76
2022/09/11 04:25:06;;;;;;;6.10;4.18;;;;;;;16.23;72.86;93841.50;5006092;28;20321;-75
2022/09/11 04:27:32;;;;;;;6.80;4.18;;;;;;;16.21;72.92;93831.09;5005675;28;20045;-76
2022/09/11 04:29:57;;;;;;;5.63;4.20;;;;;;;16.19;73.21;93832.59;5006085;28;20045;-76
2022/09/11 04:32:23;;;;;;;7.43;4.90;;;;;;;16.15;73.53;93837.09;5006008;28;20028;-75
2022/09/11 04:34:49;;;;;;;9.30;4.43;;;;;;;16.15;73.15;93832.50;5005660;28;20025;-76
2022/09/11 04:37:15;;;;;;;8.70;4.10;;;;;;;16.22;72.54;93835.38;5005957;28;20029;-75
2022/09/11 04:39:41;;;;;;;6.30;4.30;;;;;;;16.24;72.49;93840.38;5005612;28;20066;-76
2022/09/11 04:42:09;;;;;;;6.22;4.28;;;;;;;16.30;72.65;93830.91;5005780;28;20094;-75
2022/09/11 04:44:35;;;;;;;5.55;3.67;;;;;;;16.35;71.80;93840.63;5005619;28;20113;-75
2022/09/11 04:47:00;;;;;;;7.00;4.10;;;;;;;16.34;71.75;93845.22;5005514;28;20333;-75
2022/09/11 04:49:27;;;;;;;8.48;4.35;;;;;;;16.39;71.32;93833.44;5005418;28;20050;-76
2022/09/11 04:51:53;;;;;;;11.48;4.00;;;;;;;16.45;71.53;93840.09;5005543;28;20140;-76
2022/09/11 04:54:22;;;;;;;11.07;3.95;;;;;;;16.42;71.35;93843.47;5005687;28;20027;-75
2022/09/11 04:56:48;;;;;;;7.05;4.05;;;;;;;16.46;71.64;93841.66;5005762;28;20026;-76
2022/09/11 04:59:16;;;;;;;9.57;4.85;;;;;;;16.48;71.85;93839.38;5005208;28;20340;-75
2022/09/11 05:01:42;;;;;;;8.05;4.47;;;;;;;16.48;71.91;93839.38;5005309;28;20233;-75
2022/09/11 05:04:12;;;;;;;9.45;4.85;;;;;;;16.50;71.78;93837.13;5005243;28;20324;-76
2022/09/11 05:06:38;;;;;;;13.88;5.05;;;;;;;16.50;71.97;93837.13;5005177;28;20022;-75
2022/09/11 05:09:05;;;;;;;7.57;4.72;;;;;;;16.56;72.09;93838.41;5005503;28;20094;-75
2022/09/11 05:11:32;;;;;;;9.25;4.80;;;;;;;16.49;72.44;93835.56;5005401;28;20084;-75
2022/09/11 05:13:58;;;;;;;9.82;5.00;;;;;;;16.41;73.74;93848.06;5005165;28;20026;-76
2022/09/11 05:16:25;;;;;;;9.88;5.80;;;;;;;16.39;74.99;93841.50;5005129;28;20310;-75
2022/09/11 05:18:52;;;;;;;10.05;5.88;;;;;;;16.35;75.76;93840.63;5004933;28;20026;-75
2022/09/11 05:21:18;;;;;;;9.50;6.25;;;;;;;16.36;75.92;93826.81;5004997;28;20026;-76
2022/09/11 05:23:49;;;;;;;9.50;6.82;;;;;;;16.45;76.15;93834.72;5005404;28;20182;-76
2022/09/11 05:26:19;;;;;;;13.73;6.53;;;;;;;16.46;76.19;93828.19;5005120;28;20022;-76
2022/09/11 05:28:45;;;;;;;12.35;6.90;;;;;;;16.47;76.38;93832.47;5004854;28;20033;-76
2022/09/11 05:31:15;;;;;;;11.93;7.15;;;;;;;16.53;76.76;93835.66;5005163;28;20007;-75
2022/09/11 05:33:42;;;;;;;14.70;7.30;;;;;;;16.57;76.70;93831.13;5004697;28;20018;-75
2022/09/11 05:36:10;;;;;;;13.45;7.38;;;;;;;16.64;75.82;93833.97;5004991;28;20018;-76
2022/09/11 05:38:35;;;;;;;10.73;6.63;;;;;;;16.73;76.09;93833.75;5004564;28;20278;-76
2022/09/11 05:41:04;;;;;;;12.65;6.93;;;;;;;16.80;75.80;93831.22;5004436;28;20023;-76
2022/09/11 05:43:31;;;;;;;10.40;6.53;;;;;;;16.89;75.07;93829.13;5004526;28;20018;-75
2022/09/11 05:45:58;;;;;;;19.00;6.25;;;;;;;17.00;74.62;93822.06;5004221;28;20045;-76
2022/09/11 05:48:26;;;;;;;10.93;6.20;;;;;;;17.13;74.59;93827.31;5004381;28;20093;-76
2022/09/11 05:51:06;;;;;;;11.45;6.50;;;;;;;17.17;74.42;93820.84;5004296;28;20220;-76
2022/09/11 05:53:32;;;;;;;11.10;7.10;;;;;;;17.27;74.32;93818.72;5004377;28;20312;-75
2022/09/11 05:56:04;;;;;;;12.43;7.20;;;;;;;17.38;73.14;93823.19;5004302;28;20030;-76
2022/09/11 05:58:31;;;;;;;11.77;6.93;;;;;;;17.51;73.17;93825.72;5004411;28;20029;-76
2022/09/11 06:01:11;;;;;;;10.30;6.78;;;;;;;17.66;72.45;93830.22;5003838;28;20316;-76
2022/09/11 06:03:37;;;;;;;10.30;6.75;;;;;;;17.79;70.78;93834.31;5004943;28;20065;-76
2022/09/11 06:06:05;;;;;;;19.10;7.10;;;;;;;17.92;70.80;93826.84;5003185;28;20408;-76
2022/09/11 06:08:33;;;;;;;11.73;6.85;;;;;;;18.03;71.48;93835.09;5004234;28;20018;-76
2022/09/11 06:11:00;;;;;;;12.38;7.15;;;;;;;18.09;71.37;93839.03;5004274;28;20232;-76
2022/09/11 06:13:29;;;;;;;11.45;6.95;;;;;;;18.13;71.16;93831.03;5004088;28;20097;-76
2022/09/11 06:15:54;;;;;;;11.18;7.30;;;;;;;18.10;70.71;93837.91;5003974;28;20022;-76
2022/09/11 06:18:20;;;;;;;11.75;6.95;;;;;;;18.09;71.62;93846.38;5003208;28;20027;-76
2022/09/11 06:21:19;;;;;;;17.60;8.18;;;;;;;18.05;71.99;93859.78;5004043;28;20074;-76
2022/09/11 06:23:46;;;;;;;14.07;7.30;;;;;;;17.95;72.35;93857.69;4996536;28;20109;-76
2022/09/11 06:26:14;;;;;;;13.75;7.43;;;;;;;17.89;72.10;93851.03;5003934;28;20033;-76
2022/09/11 06:28:40;;;;;;;12.32;7.60;;;;;;;17.84;72.23;93852.13;5003687;28;20018;-76
2022/09/11 06:31:11;;;;;;;15.75;8.32;;;;;;;17.82;73.29;93855.13;5004032;28;20912;-76
2022/09/11 06:33:39;;;;;;;12.75;7.78;;;;;;;17.90;73.31;93852.59;5003815;28;20026;-76
2022/09/11 06:36:10;;;;;;;11.90;8.07;;;;;;;17.96;72.19;93846.56;5003923;28;20105;-76
2022/09/11 06:38:37;;;;;;;14.52;8.70;;;;;;;18.00;72.02;93852.78;5003846;28;20036;-76
2022/09/11 06:41:05;;;;;;;11.40;8.35;;;;;;;18.08;70.58;93863.69;5002189;28;20325;-76
2022/09/11 06:43:31;;;;;;;11.30;7.90;;;;;;;18.06;69.54;93857.88;5004874;28;20338;-76
2022/09/11 06:46:11;;;;;;;11.75;7.45;;;;;;;18.17;69.40;93862.28;5003109;28;20031;-74
2022/09/11 06:48:38;;;;;;;17.17;7.63;;;;;;;18.32;69.08;93871.41;5004000;28;20022;-75
2022/09/11 06:51:05;;;;;;;12.40;7.85;;;;;;;18.35;68.96;93864.50;5003373;28;20036;-75
2022/09/11 06:53:31;;;;;;;11.50;7.03;;;;;;;18.48;67.88;93863.19;5003689;28;20056;-75
2022/09/11 06:56:01;;;;;;;9.05;6.53;;;;;;;18.63;66.63;93864.16;5003605;28;20022;-75
2022/09/11 06:58:28;;;;;;;7.35;5.93;;;;;;;18.82;65.54;93860.59;5003504;28;20029;-75
2022/09/11 07:01:03;;;;;;;6.90;6.00;;;;;;;18.80;62.80;93857.47;5003316;28;20026;-75
2022/09/11 07:03:29;;;;;;;7.00;5.35;;;;;;;19.00;62.16;93856.22;5003543;28;20356;-75
2022/09/11 07:05:55;;;;;;;8.43;4.78;;;;;;;19.07;58.83;93854.75;5003116;28;20026;-75
2022/09/11 07:08:20;;;;;;;6.13;5.10;;;;;;;19.14;59.43;93857.53;5003026;28;20069;-75
2022/09/11 07:10:46;;;;;;;6.07;4.85;;;;;;;19.18;57.48;93861.06;5003058;28;20026;-75
2022/09/11 07:13:11;;;;;;;12.48;5.78;;;;;;;19.32;58.14;93865.88;5002944;28;20228;-75
2022/09/11 07:15:36;;;;;;;9.88;5.28;;;;;;;19.36;58.06;93856.66;5003107;28;20312;-75
2022/09/11 07:18:02;;;;;;;8.02;5.35;;;;;;;19.44;57.85;93858.28;5002961;28;20033;-75
2022/09/11 07:20:28;;;;;;;7.32;5.65;;;;;;;19.45;58.62;93870.66;5002914;28;20464;-75
2022/09/11 07:22:53;;;;;;;7.60;5.85;;;;;;;19.59;56.73;93870.03;5002808;28;20214;-75
2022/09/11 07:25:19;;;;;;;7.35;5.82;;;;;;;19.75;55.07;93867.13;5003012;28;20040;-75
2022/09/11 07:27:44;;;;;;;8.52;6.43;;;;;;;19.79;54.51;93859.84;5002969;28;20027;-75
2022/09/11 07:30:10;;;;;;;8.68;6.20;;;;;;;19.85;54.72;93873.81;5005949;28;20034;-75
2022/09/11 07:32:36;;;;;;;7.35;5.57;;;;;;;19.80;54.29;93860.63;5007207;28;20018;-75
2022/09/11 07:35:03;;;;;;;9.18;6.53;;;;;;;19.84;54.07;93864.13;5006779;28;20029;-75
2022/09/11 07:37:29;;;;;;;7.75;5.55;;;;;;;19.73;55.18;93864.03;5006751;28;20077;-75
2022/09/11 07:39:54;;;;;;;8.98;6.72;;;;;;;19.84;56.61;93856.81;5021925;28;20022;-75
2022/09/11 07:42:19;;;;;;;16.05;7.03;;;;;;;19.77;55.59;93862.13;5006727;28;20101;-75
2022/09/11 07:44:45;;;;;;;10.30;6.60;;;;;;;19.75;55.37;93852.84;5006636;28;20058;-75
2022/09/11 07:47:10;;;;;;;8.25;6.00;;;;;;;19.75;54.45;93850.91;5006568;28;20077;-75
2022/09/11 07:49:36;;;;;;;10.30;6.82;;;;;;;19.80;56.19;93853.31;5006788;28;20029;-75
2022/09/11 07:52:04;;;;;;;11.82;7.30;;;;;;;19.85;56.12;93854.88;5006523;28;20025;-75
2022/09/11 07:54:30;;;;;;;10.25;6.70;;;;;;;19.96;54.35;93852.28;5006661;28;20033;-75
2022/09/11 07:56:56;;;;;;;7.80;6.75;;;;;;;19.95;52.70;93848.03;5006174;28;20356;-74
2022/09/11 07:59:22;;;;;;;10.68;6.53;;;;;;;19.97;53.33;93857.31;5006349;28;20022;-74
2022/09/11 08:01:52;;;;;;;8.98;6.50;;;;;;;19.89;53.68;93854.94;5006242;28;20033;-76
2022/09/11 08:04:17;;;;;;;8.93;6.03;;;;;;;19.88;52.97;93843.31;5005812;28;20022;-76
2022/09/11 08:06:43;;;;;;;15.02;6.53;;;;;;;19.96;53.09;93847.63;5005933;28;20382;-76
2022/09/11 08:09:13;;;;;;;9.10;6.10;;;;;;;19.94;52.99;93849.16;5006307;28;20037;-75
2022/09/11 08:11:42;;;;;;;10.10;6.53;;;;;;;19.95;53.15;93842.63;5006405;28;20220;-76
2022/09/11 08:14:10;;;;;;;9.60;6.40;;;;;;;20.06;52.36;93840.75;5006203;28;20069;-76
2022/09/11 08:16:35;;;;;;;8.25;6.25;;;;;;;20.04;52.70;93841.13;5006164;28;20030;-75
2022/09/11 08:19:02;;;;;;;15.70;6.30;;;;;;;20.08;52.75;93845.81;5005931;28;20093;-75
2022/09/11 08:21:27;;;;;;;9.02;6.90;;;;;;;20.14;53.98;93839.69;5006068;28;20038;-75
2022/09/11 08:23:53;;;;;;;9.05;7.38;;;;;;;20.13;55.15;93838.13;5005993;28;20033;-76
2022/09/11 08:26:23;;;;;;;8.77;6.70;;;;;;;20.09;54.33;93831.91;5005921;28;20359;-76
2022/09/11 08:28:51;;;;;;;10.02;6.88;;;;;;;20.15;53.75;93825.00;5005651;28;20233;-76
2022/09/11 08:31:19;;;;;;;8.30;6.50;;;;;;;20.19;53.74;93827.72;5005749;28;20022;-76
2022/09/11 08:33:45;;;;;;;14.63;7.45;;;;;;;20.30;53.64;93828.59;5005703;28;20033;-76
2022/09/11 08:36:14;;;;;;;11.82;6.50;;;;;;;20.38;53.03;93824.00;5005826;28;20092;-76
2022/09/11 08:38:41;;;;;;;9.88;7.28;;;;;;;20.55;53.90;93831.47;5005718;28;20376;-76
2022/09/11 08:41:27;;;;;;;8.20;7.07;;;;;;;20.70;52.20;93820.75;5004838;28;20041;-76
2022/09/11 08:44:32;;;;;;;13.02;8.07;;;;;;;20.79;54.54;93830.09;5005210;28;20134;-76
2022/09/11 08:47:13;;;;;;;13.77;7.55;;;;;;;20.82;53.98;93823.13;5003353;28;20113;-76
2022/09/11 08:49:45;;;;;;;13.45;6.65;;;;;;;20.84;54.13;93827.03;5005609;28;20022;-75
2022/09/11 08:52:13;;;;;;;10.30;8.02;;;;;;;20.91;54.25;93820.88;5005473;28;20029;-76
2022/09/11 08:54:41;;;;;;;11.50;8.43;;;;;;;20.89;55.33;93823.19;5005374;28;20053;-76
2022/09/11 08:57:15;;;;;;;11.80;7.43;;;;;;;20.93;55.40;93812.38;5005768;28;20060;-76
2022/09/11 09:00:04;;;;;;;8.45;6.65;;;;;;;20.95;53.97;93810.84;5005315;28;20228;-75
2022/09/11 09:02:57;;;;;;;9.45;7.47;;;;;;;21.11;54.17;93807.03;5000098;28;20042;-76
2022/09/11 09:05:57;;;;;;;9.32;6.85;;;;;;;21.08;52.30;93811.28;5004996;28;20383;-75
2022/09/11 09:08:43;;;;;;;11.20;7.45;;;;;;;21.07;54.38;93814.38;5005072;28;20022;-75
2022/09/11 09:11:23;;;;;;;9.18;7.32;;;;;;;21.10;53.09;93802.78;5004995;28;20239;-76
2022/09/11 09:13:55;;;;;;;11.35;5.90;;;;;;;21.13;51.18;93802.03;5004999;28;20026;-75
2022/09/11 09:16:20;;;;;;;8.98;6.40;;;;;;;21.12;52.34;93798.50;5005058;28;20220;-76
2022/09/11 09:18:55;;;;;;;13.15;7.65;;;;;;;21.16;51.30;93796.59;5004964;28;20065;-75
2022/09/11 09:21:30;;;;;;;9.00;6.07;;;;;;;21.23;50.34;93790.44;5004824;28;20026;-75
2022/09/11 09:23:59;;;;;;;5.95;4.80;;;;;;;21.26;48.76;93800.50;5004873;28;20080;-75
2022/09/11 09:26:38;;;;;;;8.30;6.35;;;;;;;21.20;49.58;93794.69;5004679;28;20071;-75
2022/09/11 09:29:12;;;;;;;9.70;6.22;;;;;;;21.26;49.75;93797.03;5004835;28;20024;-75
2022/09/11 09:31:40;;;;;;;7.45;6.10;;;;;;;21.30;49.34;93787.75;5004928;28;20021;-75
2022/09/11 09:34:14;;;;;;;14.30;7.40;;;;;;;21.31;49.89;93783.88;5004840;28;20109;-76
2022/09/11 09:36:46;;;;;;;11.73;7.65;;;;;;;21.31;48.88;93786.59;5004903;28;20026;-76
2022/09/11 09:39:15;;;;;;;11.18;7.65;;;;;;;21.25;50.05;93785.41;5004514;28;20125;-75
2022/09/11 09:41:53;;;;;;;9.43;7.50;;;;;;;21.36;49.93;93778.06;5004528;28;20084;-76
2022/09/11 09:44:37;;;;;;;9.55;7.68;;;;;;;21.31;50.97;93766.81;5004468;28;20041;-75
2022/09/11 09:47:03;;;;;;;10.05;6.85;;;;;;;21.32;50.60;93777.28;5004118;28;20049;-76
2022/09/11 09:49:32;;;;;;;15.98;7.18;;;;;;;21.42;49.51;93787.41;5004369;28;20026;-75
2022/09/11 09:52:18;;;;;;;7.93;6.63;;;;;;;21.56;49.40;93778.53;5004098;28;20263;-76
2022/09/11 09:54:52;;;;;;;9.38;6.50;;;;;;;21.67;49.04;93777.78;5004150;28;20321;-76
2022/09/11 09:57:18;;;;;;;6.75;5.88;;;;;;;21.74;48.10;93773.16;5004268;28;20022;-76
2022/09/11 10:00:00;;;;;;;9.27;5.80;;;;;;;21.76;46.20;93781.69;5004173;28;20037;-76
2022/09/11 10:02:37;;;;;;;;;;;;;;;21.77;46.59;93768.88;5004463;28;20225;-76
2022/09/11 10:05:12;;;;;;;9.95;6.18;;;;;;;21.84;47.10;93766.97;5003952;28;20021;-76
2022/09/11 10:07:45;;;;;;;6.95;5.78;;;;;;;21.98;45.23;93771.63;5004038;28;20121;-76
2022/09/11 10:10:23;;;;;;;11.07;5.45;;;;;;;22.06;44.72;93772.38;5004121;28;20057;-75
2022/09/11 10:12:49;;;;;;;6.72;5.20;;;;;;;22.07;45.07;93763.09;5003796;28;20093;-76
2022/09/11 10:15:24;;;;;;;7.22;4.65;;;;;;;22.13;44.66;93755.31;5003892;28;20089;-76
2022/09/11 10:17:50;;;;;;;6.78;5.13;;;;;;;21.98;44.70;93768.91;5002724;28;20029;-76
2022/09/11 10:20:21;;;;;;;7.43;4.88;;;;;;;22.09;44.83;93760.75;5003961;28;20028;-76
2022/09/11 10:22:48;;;;;;;11.05;5.40;;;;;;;22.22;45.24;93758.41;5003733;28;20045;-76
2022/09/11 10:25:15;;;;;;;8.20;5.30;;;;;;;22.27;44.96;93760.78;5003561;28;20034;-76
2022/09/11 10:27:55;;;;;;;9.07;5.43;;;;;;;22.35;44.56;93766.97;5003778;28;20057;-76
2022/09/11 10:30:28;;;;;;;6.68;4.82;;;;;;;22.33;43.74;93753.78;5003623;28;20026;-76
2022/09/11 10:32:55;;;;;;;9.32;5.90;;;;;;;22.40;44.08;93758.41;5003584;28;20018;-76
2022/09/11 10:35:26;;;;;;;6.80;5.38;;;;;;;22.56;43.05;93758.78;5003539;28;20022;-76
2022/09/11 10:38:13;;;;;;;7.47;5.53;;;;;;;22.61;44.14;93749.44;5003747;28;20029;-76
2022/09/11 10:40:40;;;;;;;6.53;5.15;;;;;;;22.66;44.64;93748.28;5003432;28;20050;-76
2022/09/11 10:43:23;;;;;;;8.30;6.40;;;;;;;22.63;44.72;93750.63;5003523;28;20022;-75
2022/09/11 10:46:20;;;;;;;7.13;5.88;;;;;;;22.71;44.96;93750.59;5003277;28;20030;-76
2022/09/11 10:48:56;;;;;;;8.18;5.22;;;;;;;22.63;43.95;93753.34;5002099;28;20030;-75
2022/09/11 10:51:24;;;;;;;10.77;6.18;;;;;;;22.70;45.44;93743.63;5003477;28;20037;-75
2022/09/11 10:54:12;;;;;;;8.95;5.32;;;;;;;22.71;44.17;93734.28;5003340;28;20026;-75
2022/09/11 10:56:59;;;;;;;7.60;5.28;;;;;;;22.81;44.96;93733.47;5003340;28;20256;-76
2022/09/11 10:59:54;;;;;;;8.38;5.40;;;;;;;22.91;44.96;93738.09;5003264;28;20220;-75
2022/09/11 11:02:30;;;;;;;10.20;5.57;;;;;;;23.12;43.92;93741.91;5002996;28;20101;-75
2022/09/11 11:05:01;;;;;;;8.32;5.10;;;;;;;23.22;43.76;93725.56;5002895;28;20271;-75
2022/09/11 11:07:41;;;;;;;6.70;4.60;;;;;;;23.38;43.62;93741.38;5018348;28;20030;-76
2022/09/11 11:10:23;;;;;;;7.38;5.18;;;;;;;23.38;44.17;93737.91;5003253;28;20327;-76
2022/09/11 11:12:49;;;;;;;6.70;5.22;;;;;;;23.39;43.58;93731.31;5003128;28;20018;-76
2022/09/11 11:15:56;;;;;;;7.70;5.13;;;;;;;23.44;43.24;93726.19;5003220;28;20054;-75
2022/09/11 11:18:46;;;;;;;8.73;4.88;;;;;;;23.42;43.75;93723.09;5003101;28;20037;-75
2022/09/11 11:21:18;;;;;;;8.35;5.32;;;;;;;23.35;43.77;93723.16;5003204;28;20053;-75
2022/09/11 11:23:53;;;;;;;10.25;6.03;;;;;;;23.30;44.57;93717.34;5003093;28;20209;-75
2022/09/11 11:26:51;;;;;;;5.88;4.93;;;;;;;23.14;43.68;93702.31;5002924;28;20023;-75
2022/09/11 11:29:41;;;;;;;7.63;5.30;;;;;;;23.14;44.32;93706.94;4984344;28;20046;-75
2022/09/11 11:32:22;;;;;;;9.68;5.43;;;;;;;23.23;43.74;93710.78;5003189;28;20018;-75
2022/09/11 11:34:54;;;;;;;7.32;5.18;;;;;;;23.18;43.47;93707.69;5002918;28;20022;-75
2022/09/11 11:37:28;;;;;;;10.20;5.60;;;;;;;23.03;44.07;93702.34;5002983;28;20022;-75
2022/09/11 11:39:59;;;;;;;10.40;6.03;;;;;;;23.13;44.27;93699.97;5003041;28;20276;-76
2022/09/11 11:42:34;;;;;;;9.68;5.95;;;;;;;23.28;44.16;93706.09;5002807;28;20026;-75
2022/09/11 11:45:31;;;;;;;9.05;4.80;;;;;;;23.41;43.92;93694.38;5002711;28;20022;-75
2022/09/11 11:48:00;;;;;;;7.75;4.93;;;;;;;23.53;43.56;93692.34;5002403;28;20050;-75
2022/09/11 11:50:28;;;;;;;5.43;4.38;;;;;;;23.56;41.85;93700.47;5002851;28;20033;-75
2022/09/11 11:53:32;;;;;;;6.28;4.93;;;;;;;23.27;43.24;93699.91;5002746;28;20046;-75